METAR AND TAF INFORMATION

METAR FOR SVVA
ADDS - METARS form results

(0231 UTC 05 December 2022)
Data provider http://aviationweather.gov/metar/data/
 
METAR text: SVVA 050203Z AUTO 32003KT NCD 25/19 Q1011
Conditions at: SVVA (ZIM VALENCIA INT, VE) observed 0203 UTC 05 December 2022
Temperature: 25.0°C (77°F)
Dewpoint: 19.0°C (66°F) [RH = 69%]
Pressure (altimeter): 29.85 inches Hg (1011.0 mb)
Winds: from the NW (320 degrees) at 3 MPH (3 knots; 1.5 m/s)
Visibility: missing
Ceiling: at least 12,000 feet AGL
Clouds: sky clear below 12,000 feet AGL
Weather: no significant weather observed at this time

 

AIRPORT MAP

 

RUNWAY INFORMATION

Runway 10 Runway length 9842 ft Runway width 164 ft
Runway elevation 1415 ft Runway displaced threshold 0 ft Runway heading 93
Runway 28 Runway length 9842 ft Runway width 164 ft
Runway elevation 1400 ft Runway displaced threshold 0 ft Runway heading 273

 

AIRPORT FREQUENCIES

Type ATIS Name ATIS Frequency 127.8 MHZ
Type GND Name GND Frequency 121.9 MHZ
Type RDO Name VALENCIA R Frequency 132 MHZ
Type TWR Name VALENCIA T Frequency 118.9 MHZ

 

AIRPORT NEAR NAVIGATION AIDS

Type VOR-DME Name Valencia Frequency 117400 KHZ
Type NDB Name Valencia Frequency 380 KHZ